createdAt,value
2019-03-19T00:00:18.233Z,99.10
2019-03-19T00:01:18.217Z,99.10
2019-03-19T00:02:18.203Z,99.10
2019-03-19T00:03:18.200Z,99.29
2019-03-19T00:04:18.185Z,99.20
2019-03-19T00:05:18.174Z,98.72
2019-03-19T00:06:18.157Z,98.35
2019-03-19T00:07:18.149Z,97.97
2019-03-19T00:08:18.134Z,97.68
2019-03-19T00:09:18.123Z,97.97
2019-03-19T00:10:18.113Z,98.25
2019-03-19T00:11:18.093Z,97.97
2019-03-19T00:12:18.079Z,97.40
2019-03-19T00:13:18.071Z,97.87
2019-03-19T00:14:18.060Z,97.59
2019-03-19T00:15:18.057Z,98.63
2019-03-19T00:16:18.039Z,99.01
2019-03-19T00:17:18.024Z,99.10
2019-03-19T00:18:18.013Z,99.99
2019-03-19T00:19:17.995Z,99.86
2019-03-19T00:20:17.983Z,99.99
2019-03-19T00:21:17.971Z,99.96
2019-03-19T00:22:17.962Z,99.99
2019-03-19T00:23:17.946Z,99.58
2019-03-19T00:24:17.934Z,99.48
2019-03-19T00:25:29.041Z,99.10
2019-03-19T00:26:17.916Z,98.35
2019-03-19T00:27:17.903Z,98.63
2019-03-19T00:28:17.888Z,98.72
2019-03-19T00:29:17.877Z,98.25
2019-03-19T00:30:17.868Z,97.97
2019-03-19T00:31:17.852Z,98.54
2019-03-19T00:32:17.838Z,99.48
2019-03-19T00:33:17.824Z,99.99
2019-03-19T00:34:17.814Z,99.99
2019-03-19T00:35:17.800Z,99.67
2019-03-19T00:36:17.826Z,99.58
2019-03-19T00:37:17.776Z,99.39
2019-03-19T00:38:17.764Z,99.58
2019-03-19T00:39:17.753Z,99.67
2019-03-19T00:40:17.739Z,99.29
2019-03-19T00:41:17.730Z,99.39
2019-03-19T00:42:17.718Z,98.72
2019-03-19T00:43:17.717Z,98.54
2019-03-19T00:44:17.693Z,98.82
2019-03-19T00:45:17.683Z,98.35
2019-03-19T00:46:17.668Z,98.35
2019-03-19T00:47:17.657Z,98.44
2019-03-19T00:48:17.646Z,98.63
2019-03-19T00:49:17.628Z,98.54
2019-03-19T00:50:17.618Z,99.01
2019-03-19T00:51:17.605Z,99.10
2019-03-19T00:52:17.592Z,99.05
2019-03-19T00:53:17.579Z,99.10
2019-03-19T00:54:17.566Z,98.44
2019-03-19T00:55:17.556Z,98.72
2019-03-19T00:56:17.541Z,98.35
2019-03-19T00:57:17.532Z,98.06
2019-03-19T00:58:17.521Z,98.35
2019-03-19T00:59:17.509Z,98.54
2019-03-19T01:00:17.497Z,98.39
2019-03-19T01:01:17.486Z,97.82
2019-03-19T01:02:17.472Z,97.49
2019-03-19T01:03:17.458Z,97.97
2019-03-19T01:04:17.447Z,98.25
2019-03-19T01:05:17.430Z,98.72
2019-03-19T01:06:17.418Z,99.01
2019-03-19T01:07:17.446Z,99.86
2019-03-19T01:08:17.394Z,99.43
2019-03-19T01:09:17.382Z,99.77
2019-03-19T01:10:17.912Z,99.86
2019-03-19T01:11:17.357Z,99.24
2019-03-19T01:12:17.344Z,99.24
2019-03-19T01:13:17.337Z,99.01
2019-03-19T01:14:17.335Z,99.20
2019-03-19T01:15:17.312Z,99.48
2019-03-19T01:16:17.298Z,99.67
2019-03-19T01:17:17.282Z,99.99
2019-03-19T01:18:17.274Z,99.99
2019-03-19T01:19:17.263Z,99.99
2019-03-19T01:20:17.259Z,99.90
2019-03-19T01:21:17.241Z,99.99
2019-03-19T01:22:17.227Z,99.24
2019-03-19T01:23:17.212Z,98.49
2019-03-19T01:24:17.198Z,98.58
2019-03-19T01:25:17.194Z,98.77
2019-03-19T01:26:17.177Z,98.49
2019-03-19T01:27:17.160Z,98.49
2019-03-19T01:28:17.149Z,99.15
2019-03-19T01:29:17.133Z,99.05
2019-03-19T01:30:17.122Z,98.86
2019-03-19T01:31:17.113Z,99.62
2019-03-19T01:32:17.100Z,99.71
2019-03-19T01:33:17.089Z,99.99
2019-03-19T01:34:17.075Z,99.99
2019-03-19T01:35:17.059Z,99.99
2019-03-19T01:36:17.044Z,99.99
2019-03-19T01:37:17.039Z,99.99
2019-03-19T01:38:17.024Z,99.99
2019-03-19T01:39:17.023Z,99.99
2019-03-19T01:40:17.001Z,99.99
2019-03-19T01:41:16.986Z,99.33
2019-03-19T01:42:16.973Z,99.24
2019-03-19T01:43:16.966Z,99.05
2019-03-19T01:44:16.951Z,99.33
2019-03-19T01:45:16.942Z,98.77
2019-03-19T01:46:16.926Z,98.96
2019-03-19T01:47:16.908Z,98.68
2019-03-19T01:48:16.894Z,99.05
2019-03-19T01:49:16.881Z,98.77
2019-03-19T01:50:16.869Z,98.68
2019-03-19T01:51:16.865Z,98.77
2019-03-19T01:52:16.849Z,99.05
2019-03-19T01:53:16.838Z,99.90
2019-03-19T01:54:16.826Z,99.81
2019-03-19T01:55:16.810Z,99.71
2019-03-19T01:56:16.796Z,99.99
2019-03-19T01:57:16.789Z,99.90
2019-03-19T01:58:16.778Z,99.99
2019-03-19T01:59:16.762Z,99.99
2019-03-19T02:00:16.750Z,99.99
2019-03-19T02:01:16.731Z,99.71
2019-03-19T02:02:16.719Z,99.43
2019-03-19T02:03:16.710Z,99.15
2019-03-19T02:04:16.696Z,99.24
2019-03-19T02:05:16.688Z,99.99
2019-03-19T02:06:16.672Z,99.90
2019-03-19T02:07:16.654Z,99.99
2019-03-19T02:08:16.641Z,99.99
2019-03-19T02:09:16.631Z,99.99
2019-03-19T02:10:16.634Z,99.99
2019-03-19T02:11:16.612Z,99.62
2019-03-19T02:12:16.601Z,99.29
2019-03-19T02:13:16.584Z,98.72
2019-03-19T02:14:16.570Z,98.44
2019-03-19T02:15:16.563Z,98.91
2019-03-19T02:16:16.547Z,99.01
2019-03-19T02:17:16.534Z,99.15
2019-03-19T02:18:16.520Z,99.19
2019-03-19T02:19:16.505Z,99.66
2019-03-19T02:20:16.490Z,99.66
2019-03-19T02:21:16.478Z,99.52
2019-03-19T02:22:16.469Z,99.24
2019-03-19T02:23:16.458Z,99.99
2019-03-19T02:24:16.447Z,99.90
2019-03-19T02:25:16.431Z,99.99
2019-03-19T02:26:17.056Z,99.99
2019-03-19T02:27:16.401Z,99.99
2019-03-19T02:28:16.387Z,99.99
2019-03-19T02:29:16.379Z,99.99
2019-03-19T02:30:16.378Z,99.99
2019-03-19T02:31:16.349Z,99.99
2019-03-19T02:32:16.336Z,99.38
2019-03-19T02:33:16.325Z,99.29
2019-03-19T02:34:16.315Z,99.01
2019-03-19T02:35:16.315Z,98.96
2019-03-19T02:36:16.292Z,99.19
2019-03-19T02:37:16.283Z,99.19
2019-03-19T02:38:16.269Z,99.66
2019-03-19T02:39:16.250Z,99.52
2019-03-19T02:40:16.262Z,99.90
2019-03-19T02:41:16.219Z,99.99
2019-03-19T02:42:16.209Z,99.99
2019-03-19T02:43:16.200Z,99.99
2019-03-19T02:44:16.192Z,99.99
2019-03-19T02:45:16.174Z,99.99
2019-03-19T02:46:16.156Z,99.99
2019-03-19T02:47:16.150Z,99.99
2019-03-19T02:48:16.136Z,99.99
2019-03-19T02:49:16.127Z,99.99
2019-03-19T02:50:16.124Z,99.99
2019-03-19T02:51:16.099Z,99.99
2019-03-19T02:52:16.096Z,99.99
2019-03-19T02:53:16.070Z,99.99
2019-03-19T02:54:16.055Z,99.85
2019-03-19T02:55:16.073Z,99.38
2019-03-19T02:56:31.346Z,99.01
2019-03-19T02:57:16.021Z,99.66
2019-03-19T02:58:16.008Z,99.48
2019-03-19T02:59:15.993Z,99.29
2019-03-19T03:00:15.978Z,99.66
2019-03-19T03:01:15.970Z,99.10
2019-03-19T03:02:15.958Z,99.38
2019-03-19T03:03:15.947Z,99.76
2019-03-19T03:04:15.932Z,99.01
2019-03-19T03:05:15.930Z,99.57
2019-03-19T03:06:15.903Z,99.99
2019-03-19T03:07:15.892Z,99.95
2019-03-19T03:08:15.880Z,99.95
2019-03-19T03:09:15.867Z,99.95
2019-03-19T03:10:15.854Z,99.99
2019-03-19T03:11:15.836Z,99.99
2019-03-19T03:12:15.824Z,99.99
2019-03-19T03:13:15.809Z,99.99
2019-03-19T03:14:15.795Z,99.99
2019-03-19T03:15:15.788Z,99.99
2019-03-19T03:16:15.774Z,99.99
2019-03-19T03:17:15.757Z,99.99
2019-03-19T03:18:15.747Z,99.99
2019-03-19T03:19:15.738Z,99.99
2019-03-19T03:20:15.730Z,99.99
2019-03-19T03:21:15.716Z,99.99
2019-03-19T03:22:15.699Z,99.99
2019-03-19T03:23:15.684Z,99.99
2019-03-19T03:24:15.669Z,99.99
2019-03-19T03:25:15.652Z,99.99
2019-03-19T03:26:15.639Z,99.99
2019-03-19T03:27:15.632Z,99.99
2019-03-19T03:28:15.655Z,99.99
2019-03-19T03:29:15.611Z,99.99
2019-03-19T03:30:15.594Z,99.85
2019-03-19T03:31:15.701Z,99.99
2019-03-19T03:32:15.565Z,99.85
2019-03-19T03:33:15.556Z,99.99
2019-03-19T03:34:15.553Z,99.99
2019-03-19T03:35:15.597Z,99.99
2019-03-19T03:36:15.516Z,99.99
2019-03-19T03:37:15.496Z,99.99
2019-03-19T03:38:15.487Z,99.99
2019-03-19T03:39:15.474Z,99.99
2019-03-19T03:40:15.462Z,99.99
2019-03-19T03:41:15.448Z,99.99
2019-03-19T03:42:15.436Z,99.99
2019-03-19T03:43:15.418Z,99.99
2019-03-19T03:44:15.406Z,99.99
2019-03-19T03:45:15.396Z,99.99
2019-03-19T03:46:15.386Z,99.99
2019-03-19T03:47:15.372Z,99.99
2019-03-19T03:48:15.360Z,99.99
2019-03-19T03:49:15.347Z,99.99
2019-03-19T03:50:15.330Z,99.99
2019-03-19T03:51:15.324Z,99.99
2019-03-19T03:52:15.309Z,99.99
2019-03-19T03:53:15.305Z,99.99
2019-03-19T03:54:15.279Z,99.99
2019-03-19T03:55:15.263Z,99.99
2019-03-19T03:56:15.248Z,99.99
2019-03-19T03:57:15.241Z,99.76
2019-03-19T03:58:15.223Z,99.85
2019-03-19T03:59:15.217Z,99.99
2019-03-19T04:00:15.216Z,99.76
2019-03-19T04:01:15.190Z,99.76
2019-03-19T04:02:15.181Z,99.99
2019-03-19T04:03:15.162Z,99.85
2019-03-19T04:04:15.159Z,99.95
2019-03-19T04:05:15.140Z,99.99
2019-03-19T04:06:15.130Z,99.99
2019-03-19T04:07:15.108Z,99.99
2019-03-19T04:08:15.094Z,99.99
2019-03-19T04:09:15.080Z,99.99
2019-03-19T04:10:15.067Z,99.99
2019-03-19T04:11:15.071Z,99.85
2019-03-19T04:12:15.047Z,99.76
2019-03-19T04:13:15.033Z,99.99
2019-03-19T04:14:15.018Z,99.99
2019-03-19T04:15:15.014Z,99.99
2019-03-19T04:16:14.986Z,99.99
2019-03-19T04:17:14.994Z,99.99
2019-03-19T04:18:14.963Z,99.99
2019-03-19T04:19:14.954Z,99.99
2019-03-19T04:20:14.940Z,99.99
2019-03-19T04:21:14.923Z,99.99
2019-03-19T04:22:16.061Z,99.99
2019-03-19T04:23:14.901Z,99.99
2019-03-19T04:24:14.888Z,99.99
2019-03-19T04:25:14.886Z,99.99
2019-03-19T04:26:14.861Z,99.99
2019-03-19T04:27:16.184Z,99.99
2019-03-19T04:28:14.828Z,99.99
2019-03-19T04:29:14.824Z,99.99
2019-03-19T04:30:14.805Z,99.99
2019-03-19T04:31:14.797Z,99.99
2019-03-19T04:32:14.783Z,99.99
2019-03-19T04:33:14.770Z,99.99
2019-03-19T04:34:14.755Z,99.99
2019-03-19T04:35:14.745Z,99.99
2019-03-19T04:36:14.723Z,99.99
2019-03-19T04:37:14.715Z,99.99
2019-03-19T04:38:14.702Z,99.99
2019-03-19T04:39:14.684Z,99.99
2019-03-19T04:40:14.670Z,99.99
2019-03-19T04:41:14.671Z,99.99
2019-03-19T04:42:14.649Z,99.99
2019-03-19T04:43:14.645Z,99.99
2019-03-19T04:44:14.625Z,99.99
2019-03-19T04:45:14.611Z,99.99
2019-03-19T04:46:14.598Z,99.99
2019-03-19T04:47:14.584Z,99.99
2019-03-19T04:48:14.567Z,99.99
2019-03-19T04:49:14.552Z,99.99
2019-03-19T04:50:14.587Z,99.99
2019-03-19T04:51:14.531Z,99.99
2019-03-19T04:52:14.517Z,99.99
2019-03-19T04:53:14.498Z,99.99
2019-03-19T04:54:14.488Z,99.99
2019-03-19T04:55:14.478Z,99.99
2019-03-19T04:56:14.465Z,99.99
2019-03-19T04:57:14.454Z,99.99
2019-03-19T04:58:14.440Z,99.99
2019-03-19T04:59:14.423Z,99.99
2019-03-19T05:00:14.409Z,99.99
2019-03-19T05:01:14.396Z,99.99
2019-03-19T05:02:14.385Z,99.99
2019-03-19T05:03:14.376Z,99.99
2019-03-19T05:04:14.361Z,99.99
2019-03-19T05:05:14.347Z,99.99
2019-03-19T05:06:14.331Z,99.99
2019-03-19T05:07:14.316Z,99.99
2019-03-19T05:08:14.301Z,99.99
2019-03-19T05:09:14.291Z,99.99
2019-03-19T05:10:14.289Z,99.99
2019-03-19T05:11:14.261Z,99.99
2019-03-19T05:12:14.248Z,99.99
2019-03-19T05:13:14.239Z,99.99
2019-03-19T05:14:14.223Z,99.99
2019-03-19T05:15:14.231Z,99.99
2019-03-19T05:16:14.201Z,99.99
2019-03-19T05:17:14.188Z,99.99
2019-03-19T05:18:14.175Z,99.99
2019-03-19T05:19:14.158Z,99.99
2019-03-19T05:20:14.144Z,99.99
2019-03-19T05:21:14.127Z,99.99
2019-03-19T05:22:14.117Z,99.99
2019-03-19T05:23:14.107Z,99.99
2019-03-19T05:24:14.098Z,99.99
2019-03-19T05:25:14.078Z,99.99
2019-03-19T05:26:14.061Z,99.99
2019-03-19T05:27:14.153Z,99.99
2019-03-19T05:28:14.040Z,99.99
2019-03-19T05:29:14.029Z,99.99
2019-03-19T05:30:14.016Z,99.99
2019-03-19T05:31:13.998Z,99.99
2019-03-19T05:32:13.984Z,99.99
2019-03-19T05:33:13.972Z,99.99
2019-03-19T05:34:13.957Z,99.99
2019-03-19T05:35:13.955Z,99.99
2019-03-19T05:36:13.935Z,99.99
2019-03-19T05:37:13.919Z,99.99
2019-03-19T05:38:13.909Z,99.99
2019-03-19T05:39:13.888Z,99.99
2019-03-19T05:40:13.875Z,99.99
2019-03-19T05:41:13.869Z,99.99
2019-03-19T05:42:13.891Z,99.99
2019-03-19T05:43:13.836Z,99.99
2019-03-19T05:44:13.827Z,99.99
2019-03-19T05:45:13.811Z,99.99
2019-03-19T05:46:13.797Z,99.99
2019-03-19T05:47:13.789Z,99.99
2019-03-19T05:48:13.775Z,99.99
2019-03-19T05:49:13.765Z,99.99
2019-03-19T05:50:13.750Z,99.99
2019-03-19T05:51:13.731Z,99.99
2019-03-19T05:52:13.721Z,99.99
2019-03-19T05:53:13.708Z,99.99
2019-03-19T05:54:13.688Z,99.99
2019-03-19T05:55:13.683Z,99.99
2019-03-19T05:56:13.667Z,99.99
2019-03-19T05:57:13.647Z,99.99
2019-03-19T05:58:13.635Z,99.99
2019-03-19T05:59:13.627Z,99.99
2019-03-19T06:00:13.615Z,99.99
2019-03-19T06:01:13.602Z,99.99
2019-03-19T06:02:13.589Z,99.99
2019-03-19T06:03:13.575Z,99.99
2019-03-19T06:04:13.558Z,99.99
2019-03-19T06:05:13.546Z,99.99
2019-03-19T06:06:13.533Z,99.66
2019-03-19T06:07:13.523Z,99.19
2019-03-19T06:08:13.517Z,99.57
2019-03-19T06:09:13.500Z,99.57
2019-03-19T06:10:13.490Z,99.71
2019-03-19T06:11:13.466Z,99.43
2019-03-19T06:12:13.451Z,99.58
2019-03-19T06:13:13.445Z,99.86
2019-03-19T06:14:13.433Z,99.91
2019-03-19T06:15:13.417Z,99.34
2019-03-19T06:16:13.400Z,98.44
2019-03-19T06:17:13.394Z,97.69
2019-03-19T06:18:13.378Z,96.69
2019-03-19T06:19:13.373Z,97.17
2019-03-19T06:20:13.358Z,94.93
2019-03-19T06:21:13.347Z,94.27
2019-03-19T06:22:13.337Z,92.94
2019-03-19T06:23:13.318Z,91.47
2019-03-19T06:24:13.306Z,90.05
2019-03-19T06:25:13.303Z,88.15
2019-03-19T06:26:13.282Z,86.57
2019-03-19T06:27:13.275Z,85.38
2019-03-19T06:28:13.264Z,82.91
2019-03-19T06:29:13.256Z,82.76
2019-03-19T06:30:13.243Z,81.43
2019-03-19T06:31:13.235Z,80.42
2019-03-19T06:32:13.223Z,79.75
2019-03-19T06:33:13.213Z,79.32
2019-03-19T06:34:13.204Z,78.22
2019-03-19T06:35:13.191Z,76.59
2019-03-19T06:36:13.179Z,76.16
2019-03-19T06:37:13.169Z,75.43
2019-03-19T06:38:13.159Z,74.10
2019-03-19T06:39:13.155Z,73.08
2019-03-19T06:40:13.146Z,70.92
2019-03-19T06:41:13.140Z,70.16
2019-03-19T06:42:13.133Z,68.29
2019-03-19T06:43:13.120Z,67.71
2019-03-19T06:44:13.114Z,66.70
2019-03-19T06:45:13.109Z,66.13
2019-03-19T06:46:13.104Z,64.82
2019-03-19T06:47:13.092Z,63.96
2019-03-19T06:48:13.084Z,62.74
2019-03-19T06:49:13.075Z,61.91
2019-03-19T06:50:13.070Z,60.96
2019-03-19T06:51:13.069Z,59.75
2019-03-19T06:52:13.063Z,59.36
2019-03-19T06:53:13.058Z,58.91
2019-03-19T06:54:13.054Z,58.34
2019-03-19T06:55:13.043Z,57.31
2019-03-19T06:56:14.910Z,55.87
2019-03-19T06:57:13.036Z,55.11
2019-03-19T06:58:13.032Z,55.11
2019-03-19T06:59:13.035Z,54.37
2019-03-19T07:00:13.025Z,53.93
2019-03-19T07:01:13.018Z,54.22
2019-03-19T07:02:13.016Z,54.49
2019-03-19T07:03:13.016Z,55.86
2019-03-19T07:04:13.014Z,56.47
2019-03-19T07:05:13.008Z,58.23
2019-03-19T07:06:13.005Z,59.69
2019-03-19T07:07:13.002Z,60.58
2019-03-19T07:08:12.994Z,60.58
2019-03-19T07:09:12.994Z,60.74
2019-03-19T07:10:12.991Z,60.10
2019-03-19T07:11:13.056Z,59.52
2019-03-19T07:12:13.005Z,58.88
2019-03-19T07:13:12.992Z,57.64
2019-03-19T07:14:12.990Z,57.42
2019-03-19T07:15:12.986Z,57.55
2019-03-19T07:16:12.981Z,57.48
2019-03-19T07:17:12.985Z,57.97
2019-03-19T07:18:12.986Z,58.22
2019-03-19T07:19:12.979Z,57.35
2019-03-19T07:20:12.979Z,57.48
2019-03-19T07:21:12.975Z,56.39
2019-03-19T07:22:12.973Z,55.73
2019-03-19T07:23:12.979Z,56.23
2019-03-19T07:24:12.976Z,55.27
2019-03-19T07:25:12.977Z,55.38
2019-03-19T07:26:12.977Z,56.01
2019-03-19T07:27:12.974Z,56.01
2019-03-19T07:28:21.671Z,55.91
2019-03-19T07:29:12.975Z,55.85
2019-03-19T07:30:12.975Z,55.49
2019-03-19T07:31:12.980Z,54.57
2019-03-19T07:32:12.980Z,54.27
2019-03-19T07:33:12.978Z,54.01
2019-03-19T07:34:12.978Z,53.94
2019-03-19T07:35:12.983Z,52.22
2019-03-19T07:36:12.983Z,51.56
2019-03-19T07:37:12.982Z,52.64
2019-03-19T07:38:12.985Z,52.19
2019-03-19T07:39:12.982Z,51.73
2019-03-19T07:40:12.983Z,53.08
2019-03-19T07:41:12.985Z,55.07
2019-03-19T07:42:12.995Z,56.43
2019-03-19T07:43:12.994Z,57.07
2019-03-19T07:44:12.995Z,58.89
2019-03-19T07:45:12.996Z,58.95
2019-03-19T07:46:12.997Z,59.34
2019-03-19T07:47:12.996Z,59.59
2019-03-19T07:48:12.996Z,60.49
2019-03-19T07:49:13.003Z,60.61
2019-03-19T07:50:13.008Z,59.56
2019-03-19T07:51:13.003Z,59.91
2019-03-19T07:52:13.006Z,59.75
2019-03-19T07:53:13.010Z,59.62
2019-03-19T07:54:13.012Z,59.01
2019-03-19T07:55:13.022Z,57.48
2019-03-19T07:56:13.021Z,56.04
2019-03-19T07:57:13.025Z,55.90
2019-03-19T07:58:13.027Z,55.08
2019-03-19T07:59:13.025Z,55.30
2019-03-19T08:00:13.027Z,55.04
2019-03-19T08:01:13.028Z,54.08
2019-03-19T08:02:13.033Z,54.30
2019-03-19T08:03:16.290Z,53.12
2019-03-19T08:04:13.042Z,53.67
2019-03-19T08:05:13.042Z,53.50
2019-03-19T08:06:13.043Z,53.64
2019-03-19T08:07:13.054Z,53.96
2019-03-19T08:08:13.055Z,53.86
2019-03-19T08:09:13.060Z,53.50
2019-03-19T08:10:13.068Z,53.66
2019-03-19T08:11:13.250Z,52.39
2019-03-19T08:12:13.069Z,51.38
2019-03-19T08:13:13.073Z,50.37
2019-03-19T08:14:13.075Z,48.03
2019-03-19T08:15:13.086Z,46.71
2019-03-19T08:16:13.087Z,45.25
2019-03-19T08:17:13.091Z,44.60
2019-03-19T08:18:13.095Z,44.58
2019-03-19T08:19:13.095Z,45.83
2019-03-19T08:20:13.099Z,46.53
2019-03-19T08:21:13.109Z,47.68
2019-03-19T08:22:13.113Z,48.93
2019-03-19T08:23:13.115Z,48.40
2019-03-19T08:24:13.118Z,48.40
2019-03-19T08:25:13.126Z,48.59
2019-03-19T08:26:13.132Z,48.76
2019-03-19T08:27:13.141Z,49.87
2019-03-19T08:28:13.146Z,48.64
2019-03-19T08:29:13.151Z,48.61
2019-03-19T08:30:13.157Z,47.58
2019-03-19T08:31:13.157Z,46.04
2019-03-19T08:32:13.163Z,44.59
2019-03-19T08:33:13.166Z,44.17
2019-03-19T08:34:13.170Z,44.48
2019-03-19T08:35:13.184Z,44.31
2019-03-19T08:36:13.186Z,44.64
2019-03-19T08:37:15.487Z,43.27
2019-03-19T08:38:13.194Z,43.37
2019-03-19T08:39:13.203Z,43.21
2019-03-19T08:40:13.209Z,42.83
2019-03-19T08:41:13.218Z,42.46
2019-03-19T08:42:13.222Z,42.00
2019-03-19T08:43:13.225Z,41.75
2019-03-19T08:44:13.231Z,41.00
2019-03-19T08:45:13.236Z,40.17
2019-03-19T08:46:13.241Z,38.71
2019-03-19T08:47:13.252Z,38.15
2019-03-19T08:48:13.260Z,37.40
2019-03-19T08:49:13.267Z,36.91
2019-03-19T08:50:13.276Z,37.03
2019-03-19T08:51:13.278Z,35.96
2019-03-19T08:52:13.284Z,35.56
2019-03-19T08:53:13.296Z,35.07
2019-03-19T08:54:13.304Z,35.46
2019-03-19T08:55:13.306Z,35.28
2019-03-19T08:56:13.316Z,34.88
2019-03-19T08:57:13.319Z,34.89
2019-03-19T08:58:13.326Z,34.39
2019-03-19T08:59:13.340Z,34.51
2019-03-19T09:00:13.346Z,34.09
2019-03-19T09:01:13.355Z,34.49
2019-03-19T09:02:13.363Z,34.77
2019-03-19T09:03:13.367Z,34.84
2019-03-19T09:04:13.372Z,35.64
2019-03-19T09:05:13.387Z,35.64
2019-03-19T09:06:13.394Z,35.56
2019-03-19T09:07:13.406Z,35.66
2019-03-19T09:08:13.416Z,36.27
2019-03-19T09:09:13.419Z,35.11
2019-03-19T09:10:13.426Z,34.51
2019-03-19T09:11:13.441Z,34.28
2019-03-19T09:12:13.447Z,34.88
2019-03-19T09:13:13.455Z,34.49
2019-03-19T09:14:13.464Z,34.41
2019-03-19T09:15:13.468Z,34.54
2019-03-19T09:16:13.478Z,34.58
2019-03-19T09:17:13.487Z,33.33
2019-03-19T09:18:13.494Z,32.17
2019-03-19T09:19:13.511Z,32.17
2019-03-19T09:20:13.518Z,32.28
2019-03-19T09:21:13.532Z,32.02
2019-03-19T09:22:13.540Z,31.35
2019-03-19T09:23:13.545Z,29.86
2019-03-19T09:24:13.556Z,29.75
2019-03-19T09:25:13.568Z,30.72
2019-03-19T09:26:13.582Z,30.72
2019-03-19T09:27:13.585Z,30.83
2019-03-19T09:28:13.594Z,30.07
2019-03-19T09:29:17.044Z,29.58
2019-03-19T09:30:13.625Z,29.29
2019-03-19T09:31:13.628Z,29.58
2019-03-19T09:32:13.642Z,30.38
2019-03-19T09:33:13.647Z,30.39
2019-03-19T09:34:13.660Z,29.82
2019-03-19T09:35:13.664Z,29.14
2019-03-19T09:36:13.678Z,28.78
2019-03-19T09:37:13.691Z,28.88
2019-03-19T09:38:13.698Z,29.36
2019-03-19T09:39:13.750Z,29.19
2019-03-19T09:40:13.725Z,29.02
2019-03-19T09:41:13.732Z,29.14
2019-03-19T09:42:13.744Z,29.33
2019-03-19T09:43:13.761Z,28.94
2019-03-19T09:44:13.771Z,27.78
2019-03-19T09:45:13.780Z,27.80
2019-03-19T09:46:13.790Z,27.22
2019-03-19T09:47:13.798Z,26.63
2019-03-19T09:48:13.809Z,26.53
2019-03-19T09:49:13.828Z,26.73
2019-03-19T09:50:13.844Z,25.96
2019-03-19T09:51:13.848Z,25.39
2019-03-19T09:52:13.859Z,25.39
2019-03-19T09:53:13.868Z,24.78
2019-03-19T09:54:13.883Z,25.37
2019-03-19T09:55:13.899Z,25.46
2019-03-19T09:56:13.916Z,24.55
2019-03-19T09:57:13.915Z,25.51
2019-03-19T09:58:13.928Z,26.50
2019-03-19T09:59:13.948Z,26.68
2019-03-19T10:00:13.956Z,26.51
2019-03-19T10:01:13.971Z,25.82
2019-03-19T10:02:13.982Z,25.73
2019-03-19T10:03:13.993Z,25.03
2019-03-19T10:04:14.003Z,24.93
2019-03-19T10:05:14.016Z,24.73
2019-03-19T10:06:14.564Z,25.24
2019-03-19T10:07:14.045Z,25.34
2019-03-19T10:08:14.058Z,25.73
2019-03-19T10:09:14.066Z,25.90
2019-03-19T10:10:14.079Z,26.43
2019-03-19T10:11:14.087Z,27.47
2019-03-19T10:12:14.100Z,28.09
2019-03-19T10:13:15.173Z,29.66
2019-03-19T10:14:14.127Z,29.17
2019-03-19T10:15:14.135Z,29.24
2019-03-19T10:16:14.145Z,30.02
2019-03-19T10:17:14.161Z,30.63
2019-03-19T10:18:14.173Z,30.27
2019-03-19T10:19:14.187Z,30.18
2019-03-19T10:20:14.203Z,30.74
2019-03-19T10:21:14.211Z,30.77
2019-03-19T10:22:15.299Z,29.93
2019-03-19T10:23:14.232Z,28.88
2019-03-19T10:24:14.241Z,28.90
2019-03-19T10:25:14.250Z,27.94
2019-03-19T10:26:14.262Z,26.61
2019-03-19T10:27:14.279Z,25.05
2019-03-19T10:28:14.290Z,24.28
2019-03-19T10:29:14.298Z,24.19
2019-03-19T10:30:14.308Z,24.02
2019-03-19T10:31:14.328Z,26.48
2019-03-19T10:32:14.341Z,27.15
2019-03-19T10:33:16.044Z,26.61
2019-03-19T10:34:14.363Z,25.73
2019-03-19T10:35:14.369Z,25.70
2019-03-19T10:36:14.381Z,25.38
2019-03-19T10:37:14.392Z,25.10
2019-03-19T10:38:14.406Z,24.90
2019-03-19T10:39:14.421Z,25.54
2019-03-19T10:40:14.436Z,26.62
2019-03-19T10:41:14.444Z,27.04
2019-03-19T10:42:14.454Z,26.65
2019-03-19T10:43:14.463Z,26.04
2019-03-19T10:44:14.472Z,26.15
2019-03-19T10:45:14.488Z,26.75
2019-03-19T10:46:14.969Z,27.55
2019-03-19T10:47:14.506Z,27.86
2019-03-19T10:48:14.518Z,26.61
2019-03-19T10:49:14.531Z,25.36
2019-03-19T10:50:14.543Z,24.10
2019-03-19T10:51:14.560Z,22.64
2019-03-19T10:52:14.569Z,22.44
2019-03-19T10:53:14.580Z,22.35
2019-03-19T10:54:14.591Z,22.46
2019-03-19T10:55:14.596Z,22.36
2019-03-19T10:56:14.608Z,22.27
2019-03-19T10:57:14.623Z,21.97
2019-03-19T10:58:14.635Z,22.07
2019-03-19T10:59:14.650Z,22.64
2019-03-19T11:00:14.660Z,23.34
2019-03-19T11:01:14.668Z,22.35
2019-03-19T11:02:14.681Z,23.23
2019-03-19T11:03:14.697Z,23.83
2019-03-19T11:04:14.708Z,24.02
2019-03-19T11:05:14.720Z,22.84
2019-03-19T11:06:14.733Z,22.64
2019-03-19T11:07:15.375Z,23.41
2019-03-19T11:08:14.750Z,23.52
2019-03-19T11:09:14.759Z,22.34
2019-03-19T11:10:14.771Z,23.02
2019-03-19T11:11:14.788Z,22.72
2019-03-19T11:12:14.799Z,23.11
2019-03-19T11:13:14.811Z,22.83
2019-03-19T11:14:14.825Z,23.41
2019-03-19T11:15:14.830Z,23.68
2019-03-19T11:16:14.849Z,23.97
2019-03-19T11:17:14.861Z,24.28
2019-03-19T11:18:14.868Z,24.48
2019-03-19T11:19:14.877Z,25.15
2019-03-19T11:20:14.887Z,23.49
2019-03-19T11:21:14.896Z,24.06
2019-03-19T11:22:14.908Z,24.73
2019-03-19T11:23:14.924Z,24.15
2019-03-19T11:24:14.936Z,23.84
2019-03-19T11:25:14.953Z,23.62
2019-03-19T11:26:14.956Z,24.89
2019-03-19T11:27:14.962Z,25.37
2019-03-19T11:28:14.972Z,26.33
2019-03-19T11:29:14.989Z,26.73
2019-03-19T11:30:14.997Z,26.44
2019-03-19T11:31:15.015Z,26.73
2019-03-19T11:32:15.021Z,27.68
2019-03-19T11:33:15.030Z,28.34
2019-03-19T11:34:15.038Z,29.19
2019-03-19T11:35:15.052Z,29.76
2019-03-19T11:36:15.061Z,31.39
2019-03-19T11:37:15.068Z,31.65
2019-03-19T11:38:15.086Z,31.05
2019-03-19T11:39:15.084Z,31.01
2019-03-19T11:40:15.090Z,31.07
2019-03-19T11:41:15.098Z,32.60
2019-03-19T11:42:15.105Z,33.84
2019-03-19T11:43:15.119Z,36.06
2019-03-19T11:44:15.126Z,35.94
2019-03-19T11:45:15.133Z,36.11
2019-03-19T11:46:15.140Z,36.87
2019-03-19T11:47:15.142Z,38.02
2019-03-19T11:48:15.151Z,38.51
2019-03-19T11:49:15.155Z,38.12
2019-03-19T11:50:15.162Z,38.20
2019-03-19T11:51:15.160Z,38.59
2019-03-19T11:52:15.166Z,38.45
2019-03-19T11:53:15.167Z,39.11
2019-03-19T11:54:15.171Z,39.97
2019-03-19T11:55:15.180Z,40.62
2019-03-19T11:56:15.180Z,40.72
2019-03-19T11:57:15.186Z,41.00
2019-03-19T11:58:15.189Z,41.08
2019-03-19T11:59:15.192Z,41.25
2019-03-19T12:00:15.188Z,42.40
2019-03-19T12:01:15.188Z,42.88
2019-03-19T12:02:25.351Z,43.24
2019-03-19T12:03:16.346Z,43.23
2019-03-19T12:04:15.198Z,43.13
2019-03-19T12:05:15.196Z,44.64
2019-03-19T12:06:15.195Z,45.59
2019-03-19T12:07:15.203Z,46.55
2019-03-19T12:08:15.203Z,46.65
2019-03-19T12:09:15.205Z,46.55
2019-03-19T12:10:15.206Z,46.34
2019-03-19T12:11:15.203Z,47.58
2019-03-19T12:12:15.202Z,47.58
2019-03-19T12:13:15.205Z,47.99
2019-03-19T12:14:15.202Z,49.33
2019-03-19T12:15:15.207Z,50.20
2019-03-19T12:16:15.205Z,49.55
2019-03-19T12:17:15.201Z,48.59
2019-03-19T12:18:15.202Z,49.26
2019-03-19T12:19:15.196Z,49.38
2019-03-19T12:20:15.195Z,49.00
2019-03-19T12:21:15.197Z,47.92
2019-03-19T12:22:15.198Z,47.73
2019-03-19T12:23:15.192Z,47.44
2019-03-19T12:24:15.189Z,47.53
2019-03-19T12:25:15.193Z,48.11
2019-03-19T12:26:15.190Z,47.73
2019-03-19T12:27:15.194Z,47.25
2019-03-19T12:28:15.191Z,47.44
2019-03-19T12:29:15.195Z,47.82
2019-03-19T12:30:22.105Z,48.11
2019-03-19T12:31:15.186Z,48.59
2019-03-19T12:32:15.182Z,48.11
2019-03-19T12:33:15.178Z,46.48
2019-03-19T12:34:15.186Z,47.34
2019-03-19T12:35:15.181Z,47.63
2019-03-19T12:36:15.177Z,47.73
2019-03-19T12:37:15.170Z,46.39
2019-03-19T12:38:15.170Z,46.29
2019-03-19T12:39:15.174Z,46.86
2019-03-19T12:40:15.171Z,46.36
2019-03-19T12:41:15.243Z,47.30
2019-03-19T12:42:15.169Z,48.44
2019-03-19T12:43:15.162Z,49.69
2019-03-19T12:44:15.160Z,49.52
2019-03-19T12:45:15.168Z,48.75
2019-03-19T12:46:15.157Z,48.85
2019-03-19T12:47:15.160Z,50.20
2019-03-19T12:48:15.160Z,50.00
2019-03-19T12:49:15.151Z,49.91
2019-03-19T12:50:15.155Z,50.12
2019-03-19T12:51:15.144Z,49.84
2019-03-19T12:52:15.140Z,49.24